Estación Meteorológica Peña el Pijo (Robertgarden) [ 09/25/17 15:13:52 CEST ]

Fecha Hora Presion(HPa) Temp (°C) Humedad % Rocio (°C) Viento ( m/s) Direccion Lluvia 1Hora(mm) Lluvia 24H(mm) LLuvia Total(mm)
2017-May-28 01:01:42 1012.300 15.5 44 3.2         1390.83
2017-May-28 02:01:37 1012.000 14.0 48 3.2         1390.83
2017-May-28 03:01:51 1011.500 14.6 50 4.3         1390.83
2017-May-28 04:01:40 1011.100 13.4 53 4.0         1390.83
2017-May-28 05:01:38 1010.600 10.8 60 3.3         1390.83
2017-May-28 06:01:36 1010.800 10.5 63 3.7         1390.83
2017-May-28 07:01:34 1010.900 9.1 67 3.3         1390.83
2017-May-28 08:01:27 1011.000 10.7 71 5.7         1390.83
2017-May-28 09:01:45 1011.200 18.4 51 8.1         1390.83
2017-May-28 10:01:54 1011.400 22.6 40 8.3         1390.83
2017-May-28 11:01:26 1011.400 23.2 38 7.3         1390.83
2017-May-28 12:01:22 1011.400 24.1 36 8.0         1390.83
2017-May-28 13:01:42 1010.600 25.9 34 8.7 4.3 SSW     1390.83
2017-May-28 14:01:43 1010.500 25.6 32 7.6         1390.83
2017-May-28 15:01:44 1010.000 27.8 30 8.6         1390.83
2017-May-28 16:01:41 1009.600 28.3 30 9.1 2.7 SSW     1390.83
2017-May-28 17:01:46 1009.700 26.4 31 7.9         1390.83
2017-May-28 18:01:54 1009.500 24.8 32 7.0         1390.83
2017-May-28 19:01:50 1009.600 23.8 32 6.1 1.4 SSW     1390.83
2017-May-28 20:01:53 1010.000 21.5 33 4.5         1390.83
2017-May-28 21:01:58 1010.500 19.8 35 3.8         1390.83
2017-May-28 22:01:56 1011.200 17.1 40 3.4         1390.83
2017-May-28 23:01:58 1011.400 15.9 42 2.9         1390.83

Temperatura Máxima:28°    Temperatura Mínima:
Presión Máxima:1012.300 Hpa    Presión Mínima:1009.500 Hpa


Volver